Time;durP1;ratioP1;P1;durP2;ratioP2;P2;SDS_P1;SDS_P2;PMS_P1;PMS_P2;Temp;Humidity;BMP_temperature;BMP_pressure;BME280_temperature;BME280_humidity;BME280_pressure;Samples;Min_cycle;Max_cycle;Signal;HPM_P1;HPM_P2
2022/04/18 00:01:14;;;;;;;22.55;11.13;;;7.90;64.60;;;;;;5056341;28;20489;-76
2022/04/18 00:03:40;;;;;;;23.13;10.98;;;7.80;64.80;;;;;;5056092;28;20443;-76
2022/04/18 00:06:06;;;;;;;19.83;10.60;;;7.80;65.20;;;;;;5038550;28;20061;-75
2022/04/18 00:08:32;;;;;;;19.15;10.65;;;7.80;65.60;;;;;;5037941;28;20053;-74
2022/04/18 00:10:58;;;;;;;21.42;11.30;;;7.70;65.70;;;;;;5056293;28;20130;-77
2022/04/18 00:13:24;;;;;;;20.40;10.98;;;7.70;66.20;;;;;;5055352;28;20055;-76
2022/04/18 00:15:49;;;;;;;18.13;9.55;;;7.70;66.90;;;;;;5055870;28;20049;-76
2022/04/18 00:18:15;;;;;;;17.95;10.27;;;7.60;66.90;;;;;;5055833;28;20049;-76
2022/04/18 00:20:41;;;;;;;20.67;11.10;;;7.60;67.20;;;;;;5055756;28;20041;-75
2022/04/18 00:23:06;;;;;;;19.00;10.15;;;7.60;67.30;;;;;;5037974;28;20080;-75
2022/04/18 00:25:32;;;;;;;21.30;11.23;;;7.50;67.70;;;;;;5055853;28;20088;-75
2022/04/18 00:27:58;;;;;;;20.67;10.40;;;7.50;68.30;;;;;;5037288;28;20057;-75
2022/04/18 00:30:23;;;;;;;18.80;10.30;;;7.50;68.80;;;;;;5055406;28;20048;-76
2022/04/18 00:32:49;;;;;;;18.23;10.25;;;7.40;68.90;;;;;;5055744;28;20045;-77
2022/04/18 00:35:14;;;;;;;17.13;9.65;;;7.40;69.10;;;;;;5037667;28;20076;-76
2022/04/18 00:37:40;;;;;;;20.60;10.52;;;7.30;69.80;;;;;;5037868;28;20053;-77
2022/04/18 00:40:07;;;;;;;21.52;11.65;;;7.30;70.20;;;;;;5055678;28;20534;-76
2022/04/18 00:42:33;;;;;;;20.80;11.32;;;7.30;70.40;;;;;;5055787;28;20405;-76
2022/04/18 00:45:00;;;;;;;21.35;11.27;;;7.20;70.80;;;;;;5054846;28;20041;-76
2022/04/18 00:47:26;;;;;;;18.55;11.00;;;7.20;71.70;;;;;;5037544;28;20094;-76
2022/04/18 00:49:51;;;;;;;19.88;11.02;;;7.20;72.40;;;;;;5055460;28;20080;-77
2022/04/18 00:52:17;;;;;;;20.08;10.82;;;7.10;72.30;;;;;;5037503;28;20072;-77
2022/04/18 00:54:44;;;;;;;19.90;11.15;;;7.10;73.50;;;;;;5055721;28;20036;-76
2022/04/18 00:57:12;;;;;;;20.23;10.88;;;7.40;73.80;;;;;;5037656;28;20115;-76
2022/04/18 00:59:38;;;;;;;21.63;11.82;;;7.10;74.20;;;;;;5054922;28;20041;-76
2022/04/18 01:02:05;;;;;;;19.77;10.23;;;7.10;74.50;;;;;;5055028;28;20484;-75
2022/04/18 01:04:31;;;;;;;22.23;11.18;;;7.10;75.00;;;;;;5037370;28;20396;-76
2022/04/18 01:06:58;;;;;;;23.08;11.73;;;7.00;75.60;;;;;;5037196;28;20048;-75
2022/04/18 01:09:24;;;;;;;21.85;11.05;;;7.00;75.90;;;;;;5055141;28;20037;-76
2022/04/18 01:11:50;;;;;;;19.52;10.80;;;7.00;76.20;;;;;;5055082;28;20124;-76
2022/04/18 01:14:16;;;;;;;21.13;11.23;;;7.00;76.90;;;;;;5054919;28;20072;-75
2022/04/18 01:16:42;;;;;;;19.95;9.55;;;7.00;77.20;;;;;;5036480;28;20076;-76
2022/04/18 01:19:09;;;;;;;21.98;11.15;;;7.00;77.80;;;;;;5036846;28;20063;-76
2022/04/18 01:21:35;;;;;;;21.60;10.70;;;7.00;77.70;;;;;;5054777;28;20049;-76
2022/04/18 01:24:01;;;;;;;20.80;10.43;;;7.00;78.40;;;;;;5055107;28;20051;-76
2022/04/18 01:29:11;;;;;;;21.35;10.20;;;6.90;79.40;;;;;;5054695;28;20049;-76
2022/04/18 01:31:39;;;;;;;22.83;11.40;;;6.90;79.50;;;;;;5054499;28;20053;-76
2022/04/18 01:34:07;;;;;;;21.48;10.63;;;6.90;80.40;;;;;;5054328;28;20045;-76
2022/04/18 01:36:33;;;;;;;19.10;9.98;;;6.90;80.90;;;;;;5036670;28;20495;-76
2022/04/18 01:38:59;;;;;;;20.05;10.45;;;6.80;81.20;;;;;;5036651;28;20060;-74
2022/04/18 01:41:25;;;;;;;22.27;10.55;;;6.80;81.80;;;;;;5054454;28;20443;-75
2022/04/18 01:43:50;;;;;;;19.25;10.05;;;6.80;81.80;;;;;;5054561;28;20049;-76
2022/04/18 01:46:17;;;;;;;17.17;9.63;;;6.80;83.30;;;;;;5036469;28;20041;-76
2022/04/18 01:48:44;;;;;;;18.35;9.65;;;6.80;84.40;;;;;;5036250;28;20453;-76
2022/04/18 01:51:09;;;;;;;20.40;11.13;;;7.30;85.40;;;;;;5054490;28;20127;-75
2022/04/18 01:53:35;;;;;;;20.60;10.82;;;6.70;85.90;;;;;;5054488;28;20124;-76
2022/04/18 01:56:01;;;;;;;21.58;11.50;;;6.70;86.50;;;;;;5036123;28;20040;-76
2022/04/18 01:58:27;;;;;;;17.83;10.52;;;6.70;86.80;;;;;;5036222;28;20036;-74
2022/04/18 02:00:52;;;;;;;18.55;10.15;;;6.60;88.00;;;;;;5036530;28;20055;-76
2022/04/18 02:03:18;;;;;;;19.98;10.52;;;6.60;88.60;;;;;;5053999;28;20098;-76
2022/04/18 02:05:44;;;;;;;21.67;10.35;;;6.60;89.70;;;;;;5053220;28;20481;-76
2022/04/18 02:08:11;;;;;;;18.73;10.07;;;6.50;90.20;;;;;;5053477;28;20043;-76
2022/04/18 02:10:37;;;;;;;22.15;10.65;;;6.60;90.90;;;;;;5054300;28;20459;-75
2022/04/18 02:13:03;;;;;;;22.45;9.95;;;6.50;91.50;;;;;;5054005;28;20075;-76
2022/04/18 02:15:29;;;;;;;22.67;11.02;;;6.50;91.80;;;;;;5036190;28;20080;-75
2022/04/18 02:17:54;;;;;;;21.58;10.07;;;6.40;92.20;;;;;;5035998;28;20075;-76
2022/04/18 02:20:20;;;;;;;21.10;10.60;;;6.40;92.90;;;;;;5053045;28;20069;-76
2022/04/18 02:22:46;;;;;;;20.95;10.38;;;6.30;93.50;;;;;;5053623;28;20492;-76
2022/04/18 02:25:12;;;;;;;20.30;10.40;;;6.30;93.90;;;;;;5035695;28;20099;-76
2022/04/18 02:27:37;;;;;;;19.55;10.45;;;6.30;94.50;;;;;;5035720;28;20389;-76
2022/04/18 02:30:04;;;;;;;20.88;10.40;;;6.30;95.30;;;;;;5053620;28;20052;-76
2022/04/18 02:32:48;;;;;;;20.75;10.77;;;6.30;95.60;;;;;;5053528;28;20565;-77
2022/04/18 02:35:19;;;;;;;18.60;9.70;;;6.20;95.60;;;;;;5035631;28;20049;-77
2022/04/18 02:37:45;;;;;;;22.40;11.25;;;6.20;96.20;;;;;;5053225;28;20178;-76
2022/04/18 02:40:11;;;;;;;21.45;11.15;;;6.80;96.80;;;;;;5053444;28;20080;-76
2022/04/18 02:42:36;;;;;;;19.10;10.50;;;6.20;96.80;;;;;;5036167;28;20053;-77
2022/04/18 02:45:02;;;;;;;19.90;11.05;;;6.20;97.00;;;;;;5036709;28;20122;-76
2022/04/18 02:47:28;;;;;;;21.23;10.73;;;6.20;96.90;;;;;;5034977;28;20057;-77
2022/04/18 02:49:54;;;;;;;22.33;11.25;;;6.20;97.50;;;;;;5035212;28;20045;-77
2022/04/18 02:52:19;;;;;;;19.55;10.40;;;6.20;98.10;;;;;;5035068;28;20103;-76
2022/04/18 02:54:45;;;;;;;18.40;9.75;;;6.10;98.10;;;;;;5052970;28;20587;-77
2022/04/18 02:57:12;;;;;;;20.13;10.85;;;6.10;98.70;;;;;;5052972;28;20052;-76
2022/04/18 02:59:39;;;;;;;21.67;11.00;;;6.10;99.00;;;;;;5053120;28;20124;-73
2022/04/18 03:02:05;;;;;;;17.98;10.05;;;6.20;98.70;;;;;;5035433;28;20453;-76
2022/04/18 03:04:30;;;;;;;20.88;11.07;;;6.10;98.70;;;;;;5052698;28;20197;-76
2022/04/18 03:06:56;;;;;;;19.95;10.07;;;6.00;99.20;;;;;;5053186;28;20080;-77
2022/04/18 03:09:22;;;;;;;21.33;11.07;;;6.00;99.70;;;;;;5034415;28;20048;-74
2022/04/18 03:11:48;;;;;;;19.85;9.55;;;6.00;99.90;;;;;;5052695;28;20464;-77
2022/04/18 03:14:14;;;;;;;20.85;11.05;;;6.10;99.90;;;;;;5034957;28;20037;-77
2022/04/18 03:16:39;;;;;;;19.05;9.85;;;6.10;99.90;;;;;;5035309;28;20051;-77
2022/04/18 03:19:05;;;;;;;18.75;10.57;;;5.90;99.90;;;;;;5033833;28;20049;-74
2022/04/18 03:21:31;;;;;;;19.55;9.90;;;5.90;99.90;;;;;;5052676;28;20061;-77
2022/04/18 03:23:56;;;;;;;19.55;9.80;;;5.90;99.90;;;;;;5018295;28;20412;-77
2022/04/18 03:26:22;;;;;;;18.65;9.98;;;5.90;99.90;;;;;;5034365;28;20515;-77
2022/04/18 03:28:48;;;;;;;22.50;10.30;;;5.90;99.90;;;;;;5034705;28;20064;-76
2022/04/18 03:31:13;;;;;;;16.85;10.02;;;5.90;99.90;;;;;;5034356;28;20057;-76
2022/04/18 03:33:39;;;;;;;19.27;10.02;;;5.90;99.90;;;;;;5034296;28;20111;-76
2022/04/18 03:41:33;;;;;;;20.10;10.25;;;6.50;99.90;;;;;;5051712;28;20084;-77
2022/04/18 03:43:59;;;;;;;20.52;10.13;;;5.80;99.90;;;;;;5034568;28;20080;-77
2022/04/18 03:46:24;;;;;;;18.52;9.98;;;5.80;99.90;;;;;;5034350;28;20182;-77
2022/04/18 03:48:50;;;;;;;18.15;10.10;;;5.70;99.90;;;;;;5052460;28;20045;-77
2022/04/18 03:51:16;;;;;;;19.23;10.15;;;5.70;99.90;;;;;;5052230;28;20060;-76
2022/04/18 03:53:42;;;;;;;19.55;9.35;;;5.70;99.90;;;;;;5052455;28;20059;-76
2022/04/18 03:56:07;;;;;;;16.75;9.63;;;5.70;99.90;;;;;;5052172;28;20045;-76
2022/04/18 03:58:33;;;;;;;19.75;10.13;;;5.60;99.90;;;;;;5034064;28;20043;-76
2022/04/18 04:00:58;;;;;;;20.75;10.20;;;5.60;99.90;;;;;;5034363;28;20057;-77
2022/04/18 04:03:26;;;;;;;19.70;10.10;;;5.60;99.90;;;;;;5051952;28;20124;-77
2022/04/18 04:05:55;;;;;;;20.33;10.20;;;5.50;99.90;;;;;;5052035;28;20099;-76
2022/04/18 04:08:22;;;;;;;18.63;10.32;;;5.50;99.90;;;;;;5017804;28;20048;-77
2022/04/18 04:10:51;;;;;;;18.60;9.93;;;5.50;99.90;;;;;;5052237;28;20116;-76
2022/04/18 04:13:17;;;;;;;22.20;10.57;;;5.50;99.90;;;;;;5051630;28;20041;-77
2022/04/18 04:15:43;;;;;;;20.10;10.52;;;6.00;99.90;;;;;;5051807;28;20052;-76
2022/04/18 04:18:09;;;;;;;18.83;10.30;;;5.40;99.90;;;;;;5051974;28;20053;-76
2022/04/18 04:20:35;;;;;;;18.15;9.77;;;5.40;99.90;;;;;;5033925;28;20053;-77
2022/04/18 04:23:01;;;;;;;17.98;8.23;;;5.40;99.90;;;;;;5051944;28;20060;-76
2022/04/18 04:25:26;;;;;;;19.75;8.85;;;5.40;99.90;;;;;;5052021;28;20041;-77
2022/04/18 04:27:52;;;;;;;20.23;8.65;;;5.30;99.90;;;;;;5051805;28;20123;-77
2022/04/18 04:30:18;;;;;;;17.10;8.75;;;5.30;99.90;;;;;;5034259;28;20049;-77
2022/04/18 04:32:44;;;;;;;16.00;7.90;;;5.30;99.90;;;;;;5037826;28;20484;-77
2022/04/18 04:35:10;;;;;;;18.25;8.55;;;5.60;99.90;;;;;;5038268;28;20147;-78
2022/04/18 04:37:36;;;;;;;17.27;8.68;;;5.30;99.90;;;;;;5055834;28;20392;-76
2022/04/18 04:40:03;;;;;;;16.60;8.60;;;5.30;99.90;;;;;;5055806;28;20052;-77
2022/04/18 04:42:28;;;;;;;19.05;10.23;;;5.30;99.90;;;;;;5055548;28;20122;-76
2022/04/18 04:44:54;;;;;;;19.75;9.23;;;5.80;99.90;;;;;;5054778;28;20076;-77
2022/04/18 04:47:20;;;;;;;18.95;9.27;;;5.30;99.90;;;;;;5036773;28;20061;-74
2022/04/18 04:49:45;;;;;;;17.27;8.60;;;5.30;99.90;;;;;;5037563;28;20111;-77
2022/04/18 04:52:11;;;;;;;16.77;7.78;;;5.30;99.90;;;;;;5038036;28;20127;-75
2022/04/18 04:54:36;;;;;;;18.90;8.75;;;5.30;99.90;;;;;;5037442;28;20087;-76
2022/04/18 04:57:02;;;;;;;21.20;9.43;;;5.30;99.90;;;;;;5037474;28;20077;-76
2022/04/18 04:59:28;;;;;;;18.58;9.38;;;5.30;99.90;;;;;;5055150;28;20374;-73
2022/04/18 05:01:54;;;;;;;20.90;9.48;;;5.30;99.90;;;;;;5036891;28;20055;-76
2022/04/18 05:04:19;;;;;;;20.92;9.40;;;5.30;99.90;;;;;;5055354;28;20127;-76
2022/04/18 05:06:45;;;;;;;19.67;8.88;;;5.30;99.90;;;;;;5055078;28;20196;-76
2022/04/18 05:09:11;;;;;;;18.73;9.07;;;5.30;99.90;;;;;;5055300;28;20431;-76
2022/04/18 05:11:36;;;;;;;22.45;9.48;;;5.40;99.90;;;;;;5036889;28;20044;-77
2022/04/18 05:14:02;;;;;;;20.38;9.43;;;5.40;99.90;;;;;;5054948;28;20436;-75
2022/04/18 05:16:28;;;;;;;18.02;8.98;;;5.40;99.90;;;;;;5054552;28;20417;-77
2022/04/18 05:18:54;;;;;;;19.95;8.68;;;5.50;99.90;;;;;;5054407;28;20492;-76
2022/04/18 05:21:19;;;;;;;18.52;9.13;;;5.50;99.90;;;;;;5054804;28;20041;-77
2022/04/18 05:23:45;;;;;;;17.05;8.55;;;5.50;99.90;;;;;;5055022;28;20085;-78
2022/04/18 05:26:11;;;;;;;19.83;9.48;;;5.50;99.90;;;;;;5036602;28;20045;-77
2022/04/18 05:28:36;;;;;;;18.48;9.35;;;5.60;99.90;;;;;;5054785;28;20392;-75
2022/04/18 05:31:02;;;;;;;18.05;8.88;;;5.60;99.90;;;;;;5037103;28;20053;-76
2022/04/18 05:33:28;;;;;;;19.05;9.13;;;6.10;99.90;;;;;;5036183;28;20060;-77
2022/04/18 05:35:54;;;;;;;19.75;9.55;;;5.60;99.90;;;;;;5054630;28;20045;-74
2022/04/18 05:38:19;;;;;;;19.75;9.38;;;5.70;99.90;;;;;;5054759;28;20099;-76
2022/04/18 05:40:45;;;;;;;20.55;9.30;;;5.70;99.90;;;;;;5054407;28;20138;-76
2022/04/18 05:43:11;;;;;;;17.92;8.38;;;5.80;99.90;;;;;;5035646;28;20131;-77
2022/04/18 05:45:38;;;;;;;21.38;9.88;;;5.80;99.90;;;;;;5036391;28;20048;-77
2022/04/18 05:48:04;;;;;;;18.42;8.70;;;6.20;99.90;;;;;;5019820;28;20061;-77
2022/04/18 05:50:30;;;;;;;20.27;9.73;;;5.90;99.90;;;;;;5035694;28;20059;-76
2022/04/18 05:52:55;;;;;;;18.38;9.15;;;6.00;99.90;;;;;;5036622;28;20049;-76
2022/04/18 05:55:21;;;;;;;22.33;9.65;;;6.10;99.90;;;;;;5053996;28;20049;-76
2022/04/18 05:57:48;;;;;;;20.42;9.23;;;6.10;99.90;;;;;;5036388;28;20481;-75
2022/04/18 06:00:15;;;;;;;19.90;9.30;;;6.30;99.90;;;;;;5036584;28;20119;-76
2022/04/18 06:02:40;;;;;;;19.20;8.98;;;6.20;99.90;;;;;;5054195;28;20087;-77
2022/04/18 06:05:06;;;;;;;19.10;9.65;;;6.60;99.90;;;;;;5053203;28;20462;-76
2022/04/18 06:07:34;;;;;;;18.77;9.05;;;6.40;99.90;;;;;;5053617;28;20049;-72
2022/04/18 06:10:00;;;;;;;17.40;8.82;;;6.40;99.90;;;;;;5053919;28;20037;-77
2022/04/18 06:12:26;;;;;;;19.67;9.38;;;6.70;99.90;;;;;;5053945;28;20056;-77
2022/04/18 06:14:52;;;;;;;16.38;8.10;;;6.50;99.90;;;;;;5019280;28;20056;-77
2022/04/18 06:17:18;;;;;;;19.73;9.35;;;6.60;99.90;;;;;;5053853;28;20049;-75
2022/04/18 06:19:43;;;;;;;17.92;8.90;;;6.70;99.90;;;;;;5035920;28;20048;-76
2022/04/18 06:22:09;;;;;;;19.77;9.55;;;6.80;99.90;;;;;;5031231;28;20097;-77
2022/04/18 06:24:35;;;;;;;20.77;8.90;;;7.20;99.90;;;;;;5033592;28;20069;-78
2022/04/18 06:27:00;;;;;;;17.13;8.35;;;6.90;99.90;;;;;;5033711;28;20046;-77
2022/04/18 06:29:26;;;;;;;18.70;8.18;;;7.00;99.90;;;;;;5032342;28;20048;-78
2022/04/18 06:31:55;;;;;;;20.42;8.75;;;7.10;99.90;;;;;;5033576;28;20144;-77
2022/04/18 06:34:21;;;;;;;17.10;8.13;;;7.20;99.90;;;;;;5032369;28;20052;-77
2022/04/18 06:36:46;;;;;;;16.23;7.65;;;7.30;99.90;;;;;;5033037;28;20046;-77
2022/04/18 06:39:12;;;;;;;17.17;8.07;;;7.60;99.90;;;;;;5032175;28;20081;-77
2022/04/18 06:41:38;;;;;;;18.48;8.20;;;7.50;99.90;;;;;;5033400;28;20072;-77
2022/04/18 06:44:04;;;;;;;16.38;7.85;;;7.70;99.90;;;;;;5033463;28;20507;-76
2022/04/18 06:46:30;;;;;;;17.38;7.68;;;7.80;99.90;;;;;;5033225;28;20136;-76
2022/04/18 06:48:55;;;;;;;18.52;7.55;;;8.50;99.90;;;;;;5033446;28;20092;-77
2022/04/18 06:51:21;;;;;;;16.45;7.35;;;8.40;99.90;;;;;;5033067;28;20128;-75
2022/04/18 06:53:47;;;;;;;16.52;6.75;;;8.20;99.90;;;;;;5031510;28;20049;-77
2022/04/18 06:58:56;;;;;;;17.30;7.40;;;8.40;99.90;;;;;;5031823;28;20052;-76
2022/04/18 07:01:22;;;;;;;14.40;6.43;;;8.80;99.90;;;;;;5033119;28;20393;-76
2022/04/18 07:03:48;;;;;;;13.23;6.38;;;8.70;99.90;;;;;;5032758;28;20053;-75
2022/04/18 07:06:13;;;;;;;17.50;6.90;;;8.80;99.90;;;;;;5033106;28;20401;-76
2022/04/18 07:08:39;;;;;;;16.15;6.70;;;8.90;99.90;;;;;;5030909;28;20149;-76
2022/04/18 07:11:05;;;;;;;15.20;7.13;;;9.10;99.90;;;;;;5031382;28;20056;-77
2022/04/18 07:13:30;;;;;;;12.38;6.20;;;9.40;99.90;;;;;;5032784;28;20041;-76
2022/04/18 07:15:56;;;;;;;16.27;6.28;;;9.30;99.90;;;;;;5032916;28;20044;-77
2022/04/18 07:18:22;;;;;;;14.05;6.30;;;9.50;99.90;;;;;;5031840;28;20073;-77
2022/04/18 07:20:48;;;;;;;13.45;6.70;;;9.70;99.90;;;;;;5032377;28;20056;-77
2022/04/18 07:23:13;;;;;;;11.20;5.57;;;9.70;99.90;;;;;;5046370;28;20048;-75
2022/04/18 07:25:39;;;;;;;11.35;5.78;;;9.80;99.90;;;;;;5052130;28;20352;-76
2022/04/18 07:28:06;;;;;;;12.07;6.35;;;10.00;99.90;;;;;;5034366;28;20513;-74
2022/04/18 07:30:31;;;;;;;11.85;5.78;;;10.10;99.90;;;;;;5034818;28;20048;-76
2022/04/18 07:32:58;;;;;;;13.10;6.13;;;10.50;99.80;;;;;;5052398;28;20416;-76
2022/04/18 07:35:24;;;;;;;13.35;6.47;;;10.40;99.00;;;;;;5052429;28;20083;-77
2022/04/18 07:40:34;;;;;;;13.32;6.20;;;10.50;97.80;;;;;;5052234;28;20057;-76
2022/04/18 07:43:00;;;;;;;13.73;6.43;;;10.70;96.90;;;;;;5017555;28;20160;-76
2022/04/18 07:45:25;;;;;;;13.50;6.75;;;10.80;96.80;;;;;;5052242;28;20048;-76
2022/04/18 07:47:52;;;;;;;14.25;6.15;;;11.00;95.80;;;;;;5034593;28;20049;-76
2022/04/18 07:50:18;;;;;;;13.20;6.00;;;11.10;96.10;;;;;;5052348;28;20123;-76
2022/04/18 07:52:44;;;;;;;11.73;5.63;;;11.20;96.00;;;;;;5052538;28;20145;-76
2022/04/18 07:55:10;;;;;;;13.25;5.95;;;11.40;95.50;;;;;;5034765;28;20033;-77
2022/04/18 07:57:37;;;;;;;12.18;5.47;;;11.70;95.10;;;;;;5051843;28;20045;-76
2022/04/18 08:00:06;;;;;;;11.50;5.22;;;11.80;94.90;;;;;;5052148;28;20044;-73
2022/04/18 08:02:33;;;;;;;13.25;6.32;;;11.80;92.30;;;;;;5052274;28;20045;-75
2022/04/18 08:04:59;;;;;;;11.55;5.35;;;11.90;88.80;;;;;;5052084;28;20049;-76
2022/04/18 08:07:24;;;;;;;14.10;5.47;;;12.00;90.60;;;;;;5056459;28;20404;-74
2022/04/18 08:09:50;;;;;;;11.05;4.60;;;12.20;89.80;;;;;;5056308;28;20451;-76
2022/04/18 08:12:16;;;;;;;12.63;5.43;;;12.30;88.50;;;;;;5056184;28;20078;-76
2022/04/18 08:14:42;;;;;;;11.13;5.15;;;12.40;87.30;;;;;;5037420;28;20057;-77
2022/04/18 08:17:08;;;;;;;11.02;5.35;;;12.50;84.00;;;;;;5056123;28;20049;-73
2022/04/18 08:19:35;;;;;;;12.35;5.15;;;12.60;80.00;;;;;;5036993;28;20052;-74
2022/04/18 08:22:02;;;;;;;13.27;5.53;;;12.70;85.00;;;;;;5055968;28;20415;-75
2022/04/18 08:24:28;;;;;;;10.45;4.60;;;12.80;81.00;;;;;;5056158;28;20045;-74
2022/04/18 08:26:54;;;;;;;13.30;5.47;;;12.90;82.20;;;;;;5056009;28;20138;-73
2022/04/18 08:29:22;;;;;;;10.25;4.60;;;13.00;80.10;;;;;;5055237;28;20045;-74
2022/04/18 08:31:48;;;;;;;10.45;5.50;;;13.10;80.20;;;;;;5038054;28;20048;-75
2022/04/18 08:34:14;;;;;;;10.75;5.07;;;13.30;80.40;;;;;;5054731;28;20403;-74
2022/04/18 08:36:40;;;;;;;10.98;5.30;;;13.30;78.90;;;;;;5055649;28;20477;-74
2022/04/18 08:39:05;;;;;;;12.98;5.68;;;13.50;79.80;;;;;;5037061;28;20179;-75
2022/04/18 08:41:38;;;;;;;12.13;5.05;;;14.10;76.40;;;;;;5037916;28;20088;-76
2022/04/18 08:44:04;;;;;;;10.07;4.60;;;13.70;73.40;;;;;;5055784;28;20041;-77
2022/04/18 08:46:31;;;;;;;10.10;4.40;;;13.90;76.40;;;;;;5021063;28;20499;-76
2022/04/18 08:54:28;;;;;;;10.63;4.43;;;14.10;68.70;;;;;;5055392;28;20092;-77
2022/04/18 08:56:56;;;;;;;9.98;4.60;;;14.10;67.90;;;;;;5055420;28;20116;-77
2022/04/18 08:59:22;;;;;;;10.85;4.28;;;14.30;67.80;;;;;;5037356;28;20048;-77
2022/04/18 09:01:50;;;;;;;9.48;4.32;;;14.50;67.40;;;;;;5054550;28;20431;-78
2022/04/18 09:04:19;;;;;;;12.27;4.70;;;14.60;65.10;;;;;;5036652;28;20045;-75
2022/04/18 09:06:45;;;;;;;8.80;3.85;;;14.60;67.20;;;;;;5037240;28;20080;-77
2022/04/18 09:09:10;;;;;;;12.15;5.03;;;14.90;66.90;;;;;;5055191;28;20476;-78
2022/04/18 09:11:37;;;;;;;11.48;4.53;;;14.90;67.70;;;;;;5036990;28;20079;-77
2022/04/18 09:14:05;;;;;;;10.77;4.35;;;15.10;66.20;;;;;;5020449;28;20052;-78
2022/04/18 09:16:32;;;;;;;10.13;4.38;;;15.20;65.20;;;;;;5036157;28;20059;-78
2022/04/18 09:19:05;;;;;;;9.80;3.90;;;15.30;65.60;;;;;;5035888;28;20041;-77
2022/04/18 09:21:32;;;;;;;10.15;4.20;;;15.50;64.70;;;;;;5054969;28;20053;-77
2022/04/18 09:23:58;;;;;;;10.57;4.10;;;15.60;65.00;;;;;;5036635;28;20044;-77
2022/04/18 09:26:24;;;;;;;10.85;4.72;;;15.70;64.50;;;;;;5036655;28;20045;-75
2022/04/18 09:28:50;;;;;;;10.52;4.78;;;15.80;62.80;;;;;;5054674;28;20084;-77
2022/04/18 09:31:19;;;;;;;10.85;4.65;;;15.80;59.00;;;;;;5054516;28;20461;-74
2022/04/18 09:33:55;;;;;;;8.88;4.03;;;15.90;58.10;;;;;;5036029;28;20048;-74
2022/04/18 09:36:23;;;;;;;10.52;4.18;;;16.00;58.60;;;;;;5054531;28;20054;-72
2022/04/18 09:38:51;;;;;;;10.50;4.05;;;16.10;61.20;;;;;;5089927;28;20075;-74
2022/04/18 09:41:28;;;;;;;8.35;4.00;;;16.30;61.80;;;;;;5065246;28;20044;-76
2022/04/18 09:43:55;;;;;;;9.98;4.22;;;16.50;61.50;;;;;;5074257;28;20041;-75
2022/04/18 09:46:21;;;;;;;15.10;4.25;;;16.60;61.60;;;;;;5074317;28;20049;-77
2022/04/18 09:48:49;;;;;;;7.53;3.40;;;16.80;62.00;;;;;;5056127;28;20124;-74
2022/04/18 09:51:27;;;;;;;9.73;3.97;;;17.00;61.80;;;;;;5074169;28;20374;-80
2022/04/18 09:53:54;;;;;;;9.13;3.85;;;17.20;58.10;;;;;;5074097;28;20101;-81
2022/04/18 09:56:22;;;;;;;9.15;4.38;;;17.30;58.30;;;;;;5074046;28;20032;-84
2022/04/18 09:58:48;;;;;;;9.25;4.45;;;17.30;60.50;;;;;;5055957;28;20515;-82
2022/04/18 10:01:16;;;;;;;11.43;5.18;;;17.40;59.80;;;;;;5074178;28;20036;-84
2022/04/18 10:03:42;;;;;;;9.63;5.18;;;17.60;60.00;;;;;;5074009;28;20049;-84
2022/04/18 10:06:08;;;;;;;10.10;5.18;;;17.70;59.30;;;;;;5073325;28;20404;-85
2022/04/18 10:08:35;;;;;;;12.38;5.35;;;17.60;57.80;;;;;;5073732;28;20476;-84
2022/04/18 10:11:02;;;;;;;10.95;4.82;;;17.70;58.80;;;;;;5073767;28;20051;-84
2022/04/18 10:13:29;;;;;;;8.93;4.88;;;17.70;57.20;;;;;;5055808;28;20186;-85
2022/04/18 10:15:58;;;;;;;10.05;4.90;;;17.80;56.40;;;;;;5055664;28;20507;-85
2022/04/18 10:18:24;;;;;;;9.05;4.13;;;17.90;56.20;;;;;;5073876;28;20123;-85
2022/04/18 10:21:15;;;;;;;11.30;4.65;;;17.90;55.80;;;;;;5055285;28;20118;-85
2022/04/18 10:23:50;;;;;;;9.95;4.82;;;17.90;51.60;;;;;;5073217;28;20057;-85
2022/04/18 10:26:27;;;;;;;9.93;5.03;;;18.00;55.00;;;;;;5073746;28;20087;-85
2022/04/18 10:28:55;;;;;;;10.80;5.35;;;18.00;51.70;;;;;;5073329;28;20137;-85
2022/04/18 10:31:26;;;;;;;9.77;4.75;;;17.90;49.70;;;;;;5073409;28;20055;-85
2022/04/18 10:33:52;;;;;;;11.18;4.35;;;17.90;49.80;;;;;;5073417;28;20396;-84
2022/04/18 10:36:32;;;;;;;8.75;4.32;;;18.00;51.60;;;;;;5073058;28;20044;-83
2022/04/18 10:39:02;;;;;;;9.90;4.40;;;18.00;50.70;;;;;;5072820;28;20047;-82
2022/04/18 10:41:35;;;;;;;11.30;5.00;;;18.10;51.80;;;;;;5055287;28;20064;-83
2022/04/18 10:44:12;;;;;;;9.65;4.38;;;18.30;52.20;;;;;;5055135;28;20067;-85
2022/04/18 10:46:41;;;;;;;9.18;4.07;;;18.50;51.30;;;;;;5072915;28;20674;-85
2022/04/18 10:49:18;;;;;;;10.25;4.38;;;18.70;51.70;;;;;;5055423;28;20052;-85
2022/04/18 10:51:46;;;;;;;9.98;4.93;;;18.60;48.40;;;;;;5073329;28;20040;-85
2022/04/18 10:54:12;;;;;;;9.20;4.20;;;18.70;50.50;;;;;;5072475;28;20040;-81
2022/04/18 10:56:55;;;;;;;10.48;4.05;;;18.80;50.10;;;;;;5072843;28;20059;-85
2022/04/18 10:59:23;;;;;;;8.88;4.13;;;18.90;48.50;;;;;;5054729;28;20051;-85
2022/04/18 11:01:49;;;;;;;8.63;3.90;;;18.80;49.50;;;;;;5072833;28;20507;-84
2022/04/18 11:04:16;;;;;;;9.82;4.18;;;18.90;50.50;;;;;;5072788;28;20032;-85
2022/04/18 11:06:44;;;;;;;8.82;4.18;;;19.00;50.70;;;;;;5054721;28;20044;-85
2022/04/18 11:09:16;;;;;;;10.73;4.30;;;19.10;49.80;;;;;;5054521;28;20048;-84
2022/04/18 11:11:50;;;;;;;8.80;4.40;;;19.30;50.50;;;;;;5072460;28;20127;-83
2022/04/18 11:14:22;;;;;;;9.98;4.55;;;19.30;46.90;;;;;;5072772;28;20051;-84
2022/04/18 11:16:49;;;;;;;9.68;4.80;;;19.30;49.00;;;;;;5072784;28;20072;-85
2022/04/18 11:19:15;;;;;;;8.70;3.97;;;19.30;48.60;;;;;;5054882;28;20135;-85
2022/04/18 11:21:56;;;;;;;8.93;4.28;;;19.20;49.30;;;;;;5054921;28;20124;-85
2022/04/18 11:24:42;;;;;;;10.13;4.20;;;19.10;45.00;;;;;;5054251;28;20087;-84
2022/04/18 11:27:18;;;;;;;9.93;4.10;;;19.10;45.60;;;;;;5071938;28;20778;-84
2022/04/18 11:29:50;;;;;;;8.60;3.75;;;19.20;46.40;;;;;;5072623;28;20396;-85
2022/04/18 11:32:17;;;;;;;8.30;3.63;;;19.30;48.10;;;;;;5072712;28;20127;-86
2022/04/18 11:34:47;;;;;;;9.70;3.70;;;19.50;48.70;;;;;;5072591;28;20043;-84
2022/04/18 11:37:24;;;;;;;10.10;4.40;;;19.60;48.50;;;;;;5072295;28;20047;-83
2022/04/18 11:39:52;;;;;;;8.73;4.18;;;19.70;46.70;;;;;;5072035;28;20072;-83
2022/04/18 11:42:22;;;;;;;8.48;4.32;;;19.80;47.60;;;;;;5071917;28;20488;-82
2022/04/18 11:44:50;;;;;;;13.45;4.57;;;19.80;44.50;;;;;;5072570;28;20052;-83
2022/04/18 11:47:22;;;;;;;11.02;4.47;;;19.70;45.40;;;;;;5072722;28;20048;-84
2022/04/18 11:49:50;;;;;;;8.02;4.10;;;19.60;44.30;;;;;;5072356;28;20048;-84
2022/04/18 11:52:24;;;;;;;8.65;3.80;;;19.80;46.50;;;;;;5072608;28;20132;-85
2022/04/18 11:55:03;;;;;;;8.30;3.17;;;19.90;46.20;;;;;;5072693;28;20131;-84
2022/04/18 11:57:36;;;;;;;7.88;3.28;;;19.90;43.60;;;;;;5074088;28;20081;-85
2022/04/18 12:00:05;;;;;;;9.55;3.45;;;19.90;45.70;;;;;;5072481;28;20119;-85
2022/04/18 12:08:06;;;;;;;9.57;3.92;;;20.10;46.80;;;;;;5093521;28;20045;-84
2022/04/18 12:10:35;;;;;;;8.88;3.80;;;20.00;46.10;;;;;;5093329;28;20048;-84
2022/04/18 12:13:06;;;;;;;10.00;4.93;;;20.00;45.10;;;;;;5059954;28;20063;-84
2022/04/18 12:15:34;;;;;;;9.57;4.07;;;20.00;44.10;;;;;;5080077;28;20044;-84
2022/04/18 12:18:11;;;;;;;8.32;3.50;;;19.90;44.60;;;;;;5041493;28;20048;-83
2022/04/18 12:20:41;;;;;;;7.38;3.35;;;19.90;44.10;;;;;;5075714;28;20044;-85
2022/04/18 12:23:09;;;;;;;7.85;3.10;;;20.10;45.70;;;;;;5056190;28;20385;-81
2022/04/18 12:25:35;;;;;;;7.13;3.15;;;20.20;44.70;;;;;;5072628;28;20081;-82
2022/04/18 12:28:04;;;;;;;7.70;3.00;;;20.20;45.00;;;;;;5054178;28;20498;-73
2022/04/18 12:30:30;;;;;;;6.53;2.90;;;20.30;45.40;;;;;;5037806;28;20045;-82
2022/04/18 12:33:10;;;;;;;8.02;2.88;;;20.40;46.00;;;;;;5073868;28;20049;-83
2022/04/18 12:35:41;;;;;;;8.60;3.80;;;20.40;45.90;;;;;;5055511;28;20102;-79
2022/04/18 12:38:09;;;;;;;7.65;2.80;;;20.40;44.40;;;;;;5064879;28;20060;-82
2022/04/18 12:40:44;;;;;;;10.27;3.35;;;20.40;45.20;;;;;;5063311;28;20043;-81
2022/04/18 12:43:15;;;;;;;7.80;3.45;;;20.30;41.50;;;;;;5052580;28;20055;-81
2022/04/18 12:45:51;;;;;;;7.90;3.50;;;20.30;42.80;;;;;;5048184;28;20128;-83
2022/04/18 12:48:27;;;;;;;8.77;3.85;;;20.40;43.60;;;;;;5051989;28;20047;-84
2022/04/18 12:50:55;;;;;;;8.45;3.60;;;20.20;42.60;;;;;;5052653;28;20488;-83
2022/04/18 12:53:21;;;;;;;8.23;3.88;;;20.30;43.90;;;;;;5056574;28;20464;-84
2022/04/18 12:56:04;;;;;;;8.73;4.22;;;20.40;44.30;;;;;;5057436;28;20114;-81
2022/04/18 12:58:40;;;;;;;9.85;4.13;;;20.30;42.70;;;;;;5055437;28;20052;-85
2022/04/18 13:01:07;;;;;;;8.82;4.05;;;20.20;41.50;;;;;;5055451;28;20041;-85
2022/04/18 13:03:43;;;;;;;12.13;4.07;;;20.20;43.60;;;;;;5055602;28;20041;-83
2022/04/18 13:06:09;;;;;;;8.90;4.47;;;20.10;42.60;;;;;;5055157;28;20057;-84
2022/04/18 13:08:39;;;;;;;10.18;4.47;;;20.00;43.80;;;;;;5055755;28;20455;-83